Time;durP1;ratioP1;P1;durP2;ratioP2;P2;SDS_P1;SDS_P2;PMS_P1;PMS_P2;Temp;Humidity;BMP_temperature;BMP_pressure;BME280_temperature;BME280_humidity;BME280_pressure;Samples;Min_cycle;Max_cycle;Signal;HPM_P1;HPM_P2
2022/03/22 00:01:59;;;;;;;11.48;5.10;;;;;;;;;;5090423;27;20048;-75
2022/03/22 00:04:26;;;;;;;8.40;4.22;;;;;;;;;;5072768;27;20518;-74
2022/03/22 00:06:52;;;;;;;9.00;4.43;;;;;;;;;;5072071;27;20044;-74
2022/03/22 00:09:18;;;;;;;9.65;5.60;;;;;;;;;;5070364;27;20036;-74
2022/03/22 00:11:44;;;;;;;8.05;4.80;;;;;;;;;;5092984;27;20040;-74
2022/03/22 00:14:11;;;;;;;6.95;4.65;;;;;;;;;;5091586;27;20040;-74
2022/03/22 00:16:38;;;;;;;11.15;5.05;;;;;;;;;;5091369;27;20033;-73
2022/03/22 00:19:04;;;;;;;7.85;4.38;;;;;;;;;;5071296;27;20040;-73
2022/03/22 00:21:30;;;;;;;10.25;4.93;;;;;;;;;;5087004;27;20522;-74
2022/03/22 00:23:56;;;;;;;10.65;5.55;;;;;;;;;;5072383;28;20078;-74
2022/03/22 00:26:22;;;;;;;10.57;4.68;;;;;;;;;;5090884;27;20150;-74
2022/03/22 00:28:48;;;;;;;10.32;4.60;;;;;;;;;;5092270;27;20071;-74
2022/03/22 00:31:15;;;;;;;8.35;4.07;;;;;;;;;;5090496;27;20550;-74
2022/03/22 00:33:41;;;;;;;8.38;5.22;;;;;;;;;;5068650;28;20040;-74
2022/03/22 00:36:07;;;;;;;9.75;4.45;;;;;;;;;;5089827;27;20036;-73
2022/03/22 00:38:33;;;;;;;7.88;4.50;;;;;;;;;;5088663;27;20141;-73
2022/03/22 00:41:00;;;;;;;8.45;4.18;;;;;;;;;;5092883;27;20045;-73
2022/03/22 00:43:26;;;;;;;10.45;4.78;;;;;;;;;;5084423;27;20040;-74
2022/03/22 00:45:52;;;;;;;7.97;4.47;;;;;;;;;;5071901;28;20047;-74
2022/03/22 00:48:18;;;;;;;8.95;4.75;;;;;;;;;;5090577;27;20045;-74
2022/03/22 00:50:47;;;;;;;9.20;4.43;;;;;;;;;;5071014;28;20977;-74
2022/03/22 00:53:13;;;;;;;8.35;4.93;;;;;;;;;;5088856;27;20032;-73
2022/03/22 00:55:43;;;;;;;7.68;4.38;;;;;;;;;;5068624;28;20624;-74
2022/03/22 00:58:09;;;;;;;10.85;4.82;;;;;;;;;;5087618;27;20045;-73
2022/03/22 01:00:36;;;;;;;7.82;4.40;;;;;;;;;;5093897;27;20040;-74
2022/03/22 01:03:03;;;;;;;9.98;4.97;;;;;;;;;;5074326;28;20051;-74
2022/03/22 01:05:30;;;;;;;7.78;4.13;;;;;;;;;;5089963;27;20048;-73
2022/03/22 01:07:57;;;;;;;7.72;3.92;;;;;;;;;;5072529;28;20044;-73
2022/03/22 01:10:24;;;;;;;9.40;5.45;;;;;;;;;;5070481;27;20032;-74
2022/03/22 01:12:50;;;;;;;7.75;4.40;;;;;;;;;;5087161;27;20051;-73
2022/03/22 01:15:18;;;;;;;7.38;3.90;;;;;;;;;;5094349;27;20032;-74
2022/03/22 01:17:45;;;;;;;13.32;5.10;;;;;;;;;;5070953;27;20054;-74
2022/03/22 01:20:12;;;;;;;8.90;4.57;;;;;;;;;;5088409;27;20040;-74
2022/03/22 01:22:42;;;;;;;7.40;3.67;;;;;;;;;;5094873;27;20564;-74
2022/03/22 01:25:09;;;;;;;8.18;4.45;;;;;;;;;;5094258;27;20120;-73
2022/03/22 01:27:36;;;;;;;8.35;4.45;;;;;;;;;;5076103;27;20032;-73
2022/03/22 01:30:03;;;;;;;9.85;4.68;;;;;;;;;;5074811;27;20032;-73
2022/03/22 01:32:29;;;;;;;9.85;4.85;;;;;;;;;;5085491;27;20040;-73
2022/03/22 01:34:55;;;;;;;10.23;5.18;;;;;;;;;;5091116;27;20051;-73
2022/03/22 01:37:21;;;;;;;7.60;4.25;;;;;;;;;;5076429;27;20042;-73
2022/03/22 01:39:47;;;;;;;9.57;5.25;;;;;;;;;;5097321;27;20056;-74
2022/03/22 01:42:13;;;;;;;8.65;4.50;;;;;;;;;;5091377;27;20044;-74
2022/03/22 01:44:39;;;;;;;9.25;5.15;;;;;;;;;;5073447;27;20178;-73
2022/03/22 01:47:05;;;;;;;7.78;4.32;;;;;;;;;;5091042;27;20501;-73
2022/03/22 01:49:32;;;;;;;8.30;4.85;;;;;;;;;;5092888;27;20044;-73
2022/03/22 01:51:58;;;;;;;10.18;5.60;;;;;;;;;;5090853;27;20046;-73
2022/03/22 01:54:24;;;;;;;8.82;4.82;;;;;;;;;;5096834;27;20545;-73
2022/03/22 01:56:50;;;;;;;12.77;5.10;;;;;;;;;;5073924;27;20059;-73
2022/03/22 01:59:17;;;;;;;10.02;4.68;;;;;;;;;;5092614;27;20598;-73
2022/03/22 02:07:14;;;;;;;9.63;5.07;;;;;;;;;;5091117;27;20123;-73
2022/03/22 02:09:40;;;;;;;8.00;4.60;;;;;;;;;;5074886;28;20036;-73
2022/03/22 02:12:06;;;;;;;8.10;4.22;;;;;;;;;;5076182;28;20043;-73
2022/03/22 02:14:32;;;;;;;6.30;4.20;;;;;;;;;;5092414;27;20358;-72
2022/03/22 02:16:59;;;;;;;8.20;4.57;;;;;;;;;;5076047;28;20075;-72
2022/03/22 02:19:25;;;;;;;6.80;5.28;;;;;;;;;;5089318;27;20028;-72
2022/03/22 02:21:56;;;;;;;12.15;5.30;;;;;;;;;;5070133;28;20578;-73
2022/03/22 02:24:22;;;;;;;7.75;4.53;;;;;;;;;;5093116;27;20047;-73
2022/03/22 02:26:48;;;;;;;9.50;4.50;;;;;;;;;;5093755;27;20056;-73
2022/03/22 02:29:14;;;;;;;8.07;5.35;;;;;;;;;;5091600;27;20055;-73
2022/03/22 02:31:40;;;;;;;11.40;5.32;;;;;;;;;;5073688;27;20095;-73
2022/03/22 02:34:06;;;;;;;6.45;4.13;;;;;;;;;;5094374;27;20515;-72
2022/03/22 02:36:32;;;;;;;9.93;5.13;;;;;;;;;;5070497;27;20040;-73
2022/03/22 02:38:58;;;;;;;9.07;5.50;;;;;;;;;;5079123;27;20149;-73
2022/03/22 02:41:25;;;;;;;9.70;4.20;;;;;;;;;;5073362;27;20062;-72
2022/03/22 02:43:51;;;;;;;13.68;5.63;;;;;;;;;;5076792;27;20032;-73
2022/03/22 02:46:18;;;;;;;9.35;4.93;;;;;;;;;;5089181;27;20533;-74
2022/03/22 02:48:44;;;;;;;9.80;5.78;;;;;;;;;;5094605;27;20047;-74
2022/03/22 02:51:11;;;;;;;8.65;4.50;;;;;;;;;;5073814;27;20044;-74
2022/03/22 02:53:37;;;;;;;9.77;5.43;;;;;;;;;;5075477;27;20513;-74
2022/03/22 02:56:03;;;;;;;10.43;5.85;;;;;;;;;;5093765;27;20070;-74
2022/03/22 02:58:29;;;;;;;11.02;4.53;;;;;;;;;;5093825;27;20127;-74
2022/03/22 03:00:55;;;;;;;10.20;5.68;;;;;;;;;;5072966;27;21022;-74
2022/03/22 03:03:24;;;;;;;11.15;6.30;;;;;;;;;;5090295;27;20128;-74
2022/03/22 03:05:50;;;;;;;9.25;4.78;;;;;;;;;;5077570;27;20675;-74
2022/03/22 03:08:17;;;;;;;9.23;5.40;;;;;;;;;;5071623;27;20047;-74
2022/03/22 03:10:43;;;;;;;8.60;5.45;;;;;;;;;;5089681;27;20043;-73
2022/03/22 03:13:09;;;;;;;8.63;5.45;;;;;;;;;;5075979;28;20048;-74
2022/03/22 03:15:35;;;;;;;10.70;6.80;;;;;;;;;;5070531;28;20551;-73
2022/03/22 03:18:01;;;;;;;9.77;5.18;;;;;;;;;;5074619;28;20036;-73
2022/03/22 03:20:28;;;;;;;9.23;5.15;;;;;;;;;;5070935;28;20032;-74
2022/03/22 03:22:54;;;;;;;8.73;5.32;;;;;;;;;;5074004;28;20126;-73
2022/03/22 03:25:20;;;;;;;9.75;5.03;;;;;;;;;;5071001;28;20041;-74
2022/03/22 03:27:47;;;;;;;11.15;4.93;;;;;;;;;;5074506;28;20570;-74
2022/03/22 03:30:13;;;;;;;11.90;5.45;;;;;;;;;;5094430;27;20545;-74
2022/03/22 03:32:39;;;;;;;15.90;5.68;;;;;;;;;;5072631;28;20041;-74
2022/03/22 03:35:06;;;;;;;9.48;5.07;;;;;;;;;;5077384;28;20056;-73
2022/03/22 03:37:35;;;;;;;10.75;4.75;;;;;;;;;;5067205;28;20040;-74
2022/03/22 03:40:01;;;;;;;14.38;6.43;;;;;;;;;;5074744;28;20106;-73
2022/03/22 03:42:27;;;;;;;9.02;5.38;;;;;;;;;;5076674;28;20568;-74
2022/03/22 03:47:38;;;;;;;13.07;5.80;;;;;;;;;;5085225;27;20091;-74
2022/03/22 03:50:05;;;;;;;9.23;5.65;;;;;;;;;;5071885;28;20040;-73
2022/03/22 03:52:33;;;;;;;13.38;5.75;;;;;;;;;;5093063;27;20656;-73
2022/03/22 03:54:59;;;;;;;12.38;5.28;;;;;;;;;;5071003;28;20044;-74
2022/03/22 03:57:25;;;;;;;14.68;6.97;;;;;;;;;;5070982;28;20110;-73
2022/03/22 03:59:52;;;;;;;9.45;5.05;;;;;;;;;;5087403;27;20044;-73
2022/03/22 04:02:19;;;;;;;9.95;5.28;;;;;;;;;;5091993;27;20235;-73
2022/03/22 04:04:51;;;;;;;10.80;4.70;;;;;;;;;;5074566;28;20102;-73
2022/03/22 04:07:18;;;;;;;13.90;5.95;;;;;;;;;;5075153;28;20071;-73
2022/03/22 04:09:44;;;;;;;9.80;5.28;;;;;;;;;;5093530;27;21548;-73
2022/03/22 04:12:12;;;;;;;9.60;5.15;;;;;;;;;;5070421;28;20154;-73
2022/03/22 04:14:38;;;;;;;10.25;5.60;;;;;;;;;;5075009;28;20135;-73
2022/03/22 04:17:07;;;;;;;10.20;5.18;;;;;;;;;;5085132;27;20043;-73
2022/03/22 04:19:35;;;;;;;9.00;4.82;;;;;;;;;;5090000;27;20063;-73
2022/03/22 04:22:02;;;;;;;9.77;5.40;;;;;;;;;;5087207;27;20113;-73
2022/03/22 04:24:28;;;;;;;9.43;6.97;;;;;;;;;;5073926;27;20067;-73
2022/03/22 04:32:41;;;;;;;12.93;5.55;;;;;;;;;;5092294;27;20102;-73
2022/03/22 04:32:44;;;;;;;12.40;6.05;;;;;;;;;;5089806;27;20076;-73
2022/03/22 04:35:14;;;;;;;10.07;5.43;;;;;;;;;;5069012;28;20076;-73
2022/03/22 04:37:40;;;;;;;10.35;5.47;;;;;;;;;;5069788;28;20033;-73
2022/03/22 04:40:07;;;;;;;8.40;4.80;;;;;;;;;;5075562;28;20078;-74
2022/03/22 04:42:33;;;;;;;8.10;5.22;;;;;;;;;;5095840;27;20042;-73
2022/03/22 04:44:59;;;;;;;9.57;5.10;;;;;;;;;;5071413;28;20059;-73
2022/03/22 04:47:26;;;;;;;10.38;5.28;;;;;;;;;;5075096;27;20078;-73
2022/03/22 04:49:52;;;;;;;13.75;6.55;;;;;;;;;;5069493;28;20532;-73
2022/03/22 04:57:53;;;;;;;9.25;4.88;;;;;;;;;;5041293;27;20051;-73
2022/03/22 05:00:19;;;;;;;12.73;5.30;;;;;;;;;;5092840;27;20055;-74
2022/03/22 05:02:47;;;;;;;10.60;5.60;;;;;;;;;;5089831;27;20048;-73
2022/03/22 05:05:14;;;;;;;13.38;5.57;;;;;;;;;;5075102;27;20044;-74
2022/03/22 05:07:40;;;;;;;10.63;5.22;;;;;;;;;;5089893;27;20040;-74
2022/03/22 05:10:06;;;;;;;11.15;5.55;;;;;;;;;;5071750;27;20044;-73
2022/03/22 05:12:32;;;;;;;9.45;5.25;;;;;;;;;;5089382;27;20044;-72
2022/03/22 05:14:59;;;;;;;10.43;5.32;;;;;;;;;;5088025;27;20048;-74
2022/03/22 05:17:26;;;;;;;11.85;5.53;;;;;;;;;;5067566;27;20042;-73
2022/03/22 05:19:52;;;;;;;10.68;5.38;;;;;;;;;;5090880;27;20039;-73
2022/03/22 05:22:18;;;;;;;7.18;4.45;;;;;;;;;;5071672;27;20668;-73
2022/03/22 05:24:45;;;;;;;12.10;6.05;;;;;;;;;;5073980;27;20436;-73
2022/03/22 05:27:13;;;;;;;11.43;4.97;;;;;;;;;;5071078;27;20044;-75
2022/03/22 05:29:39;;;;;;;13.88;6.63;;;;;;;;;;5070120;28;20036;-73
2022/03/22 05:32:05;;;;;;;12.45;6.35;;;;;;;;;;5094302;27;20526;-74
2022/03/22 05:34:31;;;;;;;10.85;6.25;;;;;;;;;;5071628;27;20086;-75
2022/03/22 05:36:57;;;;;;;15.23;7.25;;;;;;;;;;5085869;27;20036;-75
2022/03/22 05:39:23;;;;;;;11.55;5.75;;;;;;;;;;5090594;28;20040;-75
2022/03/22 05:41:51;;;;;;;10.13;5.53;;;;;;;;;;5087741;27;20088;-82
2022/03/22 05:44:17;;;;;;;13.20;6.15;;;;;;;;;;5070557;28;20055;-75
2022/03/22 05:46:43;;;;;;;12.70;7.53;;;;;;;;;;5075253;28;20040;-73
2022/03/22 05:49:09;;;;;;;9.55;6.20;;;;;;;;;;5068522;27;20055;-74
2022/03/22 05:51:36;;;;;;;11.98;5.95;;;;;;;;;;5070248;28;20032;-74
2022/03/22 05:54:02;;;;;;;13.90;6.40;;;;;;;;;;5092780;27;20123;-75
2022/03/22 05:56:29;;;;;;;15.25;6.50;;;;;;;;;;5070057;28;20040;-75
2022/03/22 05:58:58;;;;;;;11.13;6.25;;;;;;;;;;5071333;28;20063;-75
2022/03/22 06:01:24;;;;;;;12.77;6.82;;;;;;;;;;5073257;28;20052;-75
2022/03/22 06:03:51;;;;;;;11.82;6.28;;;;;;;;;;5094809;27;20514;-74
2022/03/22 06:06:17;;;;;;;11.65;6.18;;;;;;;;;;5088447;27;20576;-75
2022/03/22 06:08:44;;;;;;;10.98;5.78;;;;;;;;;;5090582;27;20040;-76
2022/03/22 06:11:10;;;;;;;10.18;5.70;;;;;;;;;;5076266;27;20043;-76
2022/03/22 06:13:36;;;;;;;14.40;6.70;;;;;;;;;;5089257;27;20041;-75
2022/03/22 06:16:05;;;;;;;12.50;5.38;;;;;;;;;;5082416;28;20048;-76
2022/03/22 06:18:31;;;;;;;13.52;5.82;;;;;;;;;;5075956;27;20044;-76
2022/03/22 06:20:57;;;;;;;13.15;6.00;;;;;;;;;;5077979;27;20044;-76
2022/03/22 06:23:24;;;;;;;12.00;5.75;;;;;;;;;;5076907;27;20535;-76
2022/03/22 06:25:51;;;;;;;9.82;5.57;;;;;;;;;;5075631;28;20068;-76
2022/03/22 06:28:18;;;;;;;10.35;5.72;;;;;;;;;;5080132;27;20066;-76
2022/03/22 06:30:45;;;;;;;12.50;5.97;;;;;;;;;;5078254;27;20036;-76
2022/03/22 06:33:13;;;;;;;11.85;5.45;;;;;;;;;;5072644;27;20044;-76
2022/03/22 06:35:39;;;;;;;13.15;6.72;;;;;;;;;;5072544;27;20032;-76
2022/03/22 06:38:05;;;;;;;10.35;5.78;;;;;;;;;;5078883;27;20066;-73
2022/03/22 06:40:34;;;;;;;11.60;5.18;;;;;;;;;;5092898;27;20132;-77
2022/03/22 06:43:01;;;;;;;10.68;5.93;;;;;;;;;;5071157;27;20102;-77
2022/03/22 06:45:27;;;;;;;16.48;6.90;;;;;;;;;;5069471;27;20036;-77
2022/03/22 06:47:54;;;;;;;10.52;5.20;;;;;;;;;;5077964;27;20040;-77
2022/03/22 06:50:20;;;;;;;13.50;7.13;;;;;;;;;;5076034;27;20059;-77
2022/03/22 06:52:47;;;;;;;10.38;5.47;;;;;;;;;;5078877;27;20075;-77
2022/03/22 06:55:18;;;;;;;13.18;6.30;;;;;;;;;;5093381;27;20047;-76
2022/03/22 06:57:44;;;;;;;13.73;6.25;;;;;;;;;;5094521;27;20052;-77
2022/03/22 07:00:12;;;;;;;9.07;5.63;;;;;;;;;;5065634;27;20093;-77
2022/03/22 07:02:39;;;;;;;15.07;6.32;;;;;;;;;;5096104;27;20029;-77
2022/03/22 07:05:06;;;;;;;12.15;6.10;;;;;;;;;;5088664;27;20070;-77
2022/03/22 07:07:32;;;;;;;13.30;6.82;;;;;;;;;;5075120;27;20021;-77
2022/03/22 07:09:58;;;;;;;15.68;6.72;;;;;;;;;;5098889;27;20082;-77
2022/03/22 07:12:24;;;;;;;12.70;5.97;;;;;;;;;;5074469;27;20044;-77
2022/03/22 07:14:54;;;;;;;14.07;6.47;;;;;;;;;;5079807;27;20032;-80
2022/03/22 07:17:20;;;;;;;14.18;7.00;;;;;;;;;;5069170;27;20579;-76
2022/03/22 07:19:47;;;;;;;14.05;7.30;;;;;;;;;;5093757;27;20170;-77
2022/03/22 07:22:13;;;;;;;13.30;6.95;;;;;;;;;;5091049;27;20051;-77
2022/03/22 07:24:40;;;;;;;16.38;7.40;;;;;;;;;;5095565;27;20036;-77
2022/03/22 07:27:06;;;;;;;14.13;7.13;;;;;;;;;;5075825;27;20122;-77
2022/03/22 07:29:32;;;;;;;17.77;6.75;;;;;;;;;;5084286;27;20098;-77
2022/03/22 07:31:59;;;;;;;12.05;7.35;;;;;;;;;;5104324;27;20101;-77
2022/03/22 07:34:26;;;;;;;17.67;5.95;;;;;;;;;;5077612;28;20098;-76
2022/03/22 07:36:54;;;;;;;13.57;6.68;;;;;;;;;;5082641;28;20085;-77
2022/03/22 07:39:22;;;;;;;13.85;6.28;;;;;;;;;;5080648;28;20123;-77
2022/03/22 07:41:48;;;;;;;11.38;5.55;;;;;;;;;;5077331;28;20108;-77
2022/03/22 07:44:15;;;;;;;10.52;6.60;;;;;;;;;;5078713;28;20079;-77
2022/03/22 07:46:41;;;;;;;15.52;6.70;;;;;;;;;;5080880;28;20071;-77
2022/03/22 07:54:37;;;;;;;14.70;6.53;;;;;;;;;;5091989;27;20080;-76
2022/03/22 07:57:04;;;;;;;17.23;6.93;;;;;;;;;;5072907;28;20117;-76
2022/03/22 07:59:30;;;;;;;12.45;7.35;;;;;;;;;;5078095;27;20028;-76
2022/03/22 08:01:56;;;;;;;11.15;5.88;;;;;;;;;;5093927;27;20561;-76
2022/03/22 08:04:22;;;;;;;12.43;6.03;;;;;;;;;;5072469;27;20130;-76
2022/03/22 08:06:48;;;;;;;11.95;6.43;;;;;;;;;;5078746;27;20044;-77
2022/03/22 08:09:15;;;;;;;11.38;6.95;;;;;;;;;;5072475;28;20040;-77
2022/03/22 08:11:42;;;;;;;15.88;6.93;;;;;;;;;;5077323;27;20147;-76
2022/03/22 08:14:08;;;;;;;11.10;6.32;;;;;;;;;;5073956;27;20044;-76
2022/03/22 08:16:38;;;;;;;11.77;5.82;;;;;;;;;;5075239;28;20032;-77
2022/03/22 08:19:07;;;;;;;9.52;5.75;;;;;;;;;;5075063;27;20048;-76
2022/03/22 08:21:34;;;;;;;10.50;5.75;;;;;;;;;;5082738;27;20053;-76
2022/03/22 08:24:00;;;;;;;10.23;5.63;;;;;;;;;;5092605;27;20123;-76
2022/03/22 08:26:27;;;;;;;9.95;6.15;;;;;;;;;;5075777;27;20040;-75
2022/03/22 08:28:53;;;;;;;12.45;6.68;;;;;;;;;;5081774;27;20060;-76
2022/03/22 08:31:20;;;;;;;11.00;4.93;;;;;;;;;;5069165;27;20228;-76
2022/03/22 08:33:46;;;;;;;9.88;5.22;;;;;;;;;;5098600;27;20075;-76
2022/03/22 08:36:12;;;;;;;9.20;5.32;;;;;;;;;;5074414;27;20098;-76
2022/03/22 08:38:38;;;;;;;12.98;5.85;;;;;;;;;;5071438;27;20036;-76
2022/03/22 08:41:04;;;;;;;10.88;6.45;;;;;;;;;;5076635;27;20070;-76
2022/03/22 08:43:32;;;;;;;9.25;4.55;;;;;;;;;;5073419;27;20047;-76
2022/03/22 08:45:58;;;;;;;12.82;5.70;;;;;;;;;;5082562;27;20037;-76
2022/03/22 08:48:24;;;;;;;10.15;6.53;;;;;;;;;;5071871;27;20510;-77
2022/03/22 08:50:51;;;;;;;7.53;5.43;;;;;;;;;;5081708;28;20067;-76
2022/03/22 08:53:19;;;;;;;10.15;5.47;;;;;;;;;;5074344;28;20047;-76
2022/03/22 08:55:48;;;;;;;12.27;5.18;;;;;;;;;;5075381;28;20068;-76
2022/03/22 08:58:16;;;;;;;9.43;4.88;;;;;;;;;;5070618;28;20381;-77
2022/03/22 09:00:42;;;;;;;9.02;4.47;;;;;;;;;;5071551;28;20066;-76
2022/03/22 09:03:14;;;;;;;14.43;5.32;;;;;;;;;;5079681;28;20526;-76
2022/03/22 09:08:25;;;;;;;11.50;5.10;;;;;;;;;;5099707;27;20044;-76
2022/03/22 09:10:52;;;;;;;9.27;5.32;;;;;;;;;;5072609;27;20044;-76
2022/03/22 09:13:19;;;;;;;12.43;5.15;;;;;;;;;;5072040;27;20040;-76
2022/03/22 09:15:47;;;;;;;8.52;4.45;;;;;;;;;;5085615;27;20803;-76
2022/03/22 09:18:16;;;;;;;10.27;5.40;;;;;;;;;;5090350;27;20090;-76
2022/03/22 09:20:46;;;;;;;10.00;5.82;;;;;;;;;;5077440;27;20045;-77
2022/03/22 09:23:14;;;;;;;9.38;5.53;;;;;;;;;;5079428;27;20132;-77
2022/03/22 09:25:41;;;;;;;10.68;5.47;;;;;;;;;;5069518;27;20044;-76
2022/03/22 09:28:07;;;;;;;7.38;4.82;;;;;;;;;;5072198;27;20043;-76
2022/03/22 09:30:34;;;;;;;10.07;5.20;;;;;;;;;;5074163;27;20134;-76
2022/03/22 09:33:02;;;;;;;8.43;5.05;;;;;;;;;;5088747;27;20043;-76
2022/03/22 09:35:28;;;;;;;11.75;5.00;;;;;;;;;;5074906;28;20036;-76
2022/03/22 09:37:55;;;;;;;11.25;5.13;;;;;;;;;;5076492;27;20047;-77
2022/03/22 09:40:22;;;;;;;7.72;4.45;;;;;;;;;;5089182;27;20239;-76
2022/03/22 09:42:48;;;;;;;8.50;4.75;;;;;;;;;;5074598;27;20041;-76
2022/03/22 09:45:24;;;;;;;10.30;5.00;;;;;;;;;;5098585;27;20043;-77
2022/03/22 09:47:50;;;;;;;10.45;4.22;;;;;;;;;;5071141;27;20040;-76
2022/03/22 09:50:17;;;;;;;7.88;4.90;;;;;;;;;;5095305;27;20047;-76
2022/03/22 09:52:44;;;;;;;7.30;4.07;;;;;;;;;;5073490;28;20043;-77
2022/03/22 09:55:11;;;;;;;8.30;4.25;;;;;;;;;;5077721;28;20076;-77
2022/03/22 09:57:37;;;;;;;8.85;4.57;;;;;;;;;;5073414;27;20076;-77
2022/03/22 10:00:07;;;;;;;8.60;4.43;;;;;;;;;;5078433;27;20877;-76
2022/03/22 10:02:35;;;;;;;7.95;3.67;;;;;;;;;;5078348;27;20755;-76
2022/03/22 10:05:04;;;;;;;6.40;4.00;;;;;;;;;;5079609;27;20044;-76
2022/03/22 10:07:30;;;;;;;9.48;3.88;;;;;;;;;;5081004;27;20063;-76
2022/03/22 10:10:02;;;;;;;7.85;4.10;;;;;;;;;;5075985;27;20109;-76
2022/03/22 10:12:34;;;;;;;6.65;3.55;;;;;;;;;;5089735;27;20560;-76
2022/03/22 10:15:06;;;;;;;6.78;4.05;;;;;;;;;;5095078;27;20051;-77
2022/03/22 10:17:32;;;;;;;6.82;4.20;;;;;;;;;;5076845;27;20522;-77
2022/03/22 10:19:59;;;;;;;7.43;3.88;;;;;;;;;;5078184;27;20088;-76
2022/03/22 10:22:26;;;;;;;6.22;3.50;;;;;;;;;;5073021;27;20043;-78
2022/03/22 10:24:55;;;;;;;9.30;3.90;;;;;;;;;;5072988;28;20052;-77
2022/03/22 10:27:32;;;;;;;8.93;5.13;;;;;;;;;;5076553;27;20084;-77
2022/03/22 10:29:59;;;;;;;7.75;4.25;;;;;;;;;;5076542;28;20053;-76
2022/03/22 10:32:34;;;;;;;7.85;4.43;;;;;;;;;;5074998;27;20100;-76
2022/03/22 10:35:13;;;;;;;7.28;3.97;;;;;;;;;;5080763;27;20525;-77
2022/03/22 10:37:41;;;;;;;9.82;4.15;;;;;;;;;;5076547;28;20045;-77
2022/03/22 10:40:23;;;;;;;6.22;3.97;;;;;;;;;;5073144;28;20075;-77
2022/03/22 10:42:50;;;;;;;9.48;4.75;;;;;;;;;;5076123;27;20036;-77
2022/03/22 10:45:17;;;;;;;10.82;4.35;;;;;;;;;;5097110;27;20118;-77
2022/03/22 10:47:43;;;;;;;9.45;4.63;;;;;;;;;;5097586;27;20045;-77
2022/03/22 10:50:09;;;;;;;7.50;3.47;;;;;;;;;;5093234;27;20048;-77
2022/03/22 10:52:46;;;;;;;7.47;4.07;;;;;;;;;;5079532;28;20040;-76
2022/03/22 10:55:19;;;;;;;12.32;4.45;;;;;;;;;;5094406;27;20048;-77
2022/03/22 10:57:46;;;;;;;6.50;3.60;;;;;;;;;;5097057;27;20052;-76
2022/03/22 11:00:13;;;;;;;5.43;3.50;;;;;;;;;;5098013;27;20559;-77
2022/03/22 11:02:39;;;;;;;8.98;3.47;;;;;;;;;;5099240;27;20040;-76
2022/03/22 11:05:06;;;;;;;9.10;4.15;;;;;;;;;;5077809;27;20074;-77
2022/03/22 11:07:34;;;;;;;7.13;3.85;;;;;;;;;;5091721;27;20047;-77
2022/03/22 11:10:01;;;;;;;9.82;4.53;;;;;;;;;;5090524;27;20067;-77
2022/03/22 11:12:27;;;;;;;6.90;4.13;;;;;;;;;;5075326;28;20044;-77
2022/03/22 11:14:57;;;;;;;6.45;3.83;;;;;;;;;;5074559;27;20048;-77
2022/03/22 11:17:25;;;;;;;4.70;3.75;;;;;;;;;;5091588;27;20052;-77
2022/03/22 11:19:51;;;;;;;7.65;3.45;;;;;;;;;;5083014;27;20047;-76
2022/03/22 11:22:17;;;;;;;6.15;3.55;;;;;;;;;;5076466;27;20063;-76
2022/03/22 11:24:48;;;;;;;9.73;3.33;;;;;;;;;;5072137;27;20123;-76
2022/03/22 11:27:14;;;;;;;10.85;3.95;;;;;;;;;;5085522;27;20048;-76
2022/03/22 11:29:40;;;;;;;5.07;3.25;;;;;;;;;;5095479;27;20255;-76
2022/03/22 11:34:57;;;;;;;6.43;3.53;;;;;;;;;;5093064;27;20066;-76
2022/03/22 11:37:33;;;;;;;6.95;3.22;;;;;;;;;;5076998;28;20044;-76
2022/03/22 11:42:54;;;;;;;5.13;3.58;;;;;;;;;;5093849;27;20419;-76
2022/03/22 11:45:21;;;;;;;5.18;3.28;;;;;;;;;;5098617;27;20044;-76
2022/03/22 11:47:49;;;;;;;6.07;3.35;;;;;;;;;;5070175;27;20032;-77
2022/03/22 11:50:18;;;;;;;5.47;3.33;;;;;;;;;;5102295;27;20174;-76
2022/03/22 11:52:51;;;;;;;8.57;3.83;;;;;;;;;;5075011;28;20851;-76
2022/03/22 11:55:17;;;;;;;8.60;3.88;;;;;;;;;;5075041;27;20037;-77
2022/03/22 11:57:50;;;;;;;5.45;2.67;;;;;;;;;;5081059;27;20055;-76
2022/03/22 12:00:20;;;;;;;5.93;3.10;;;;;;;;;;5079194;27;20182;-76
2022/03/22 12:02:52;;;;;;;10.35;4.68;;;;;;;;;;5082030;27;20143;-76
2022/03/22 12:05:22;;;;;;;7.43;3.58;;;;;;;;;;5072475;28;20127;-76
2022/03/22 12:07:50;;;;;;;4.88;3.45;;;;;;;;;;5075058;27;20044;-76
2022/03/22 12:10:17;;;;;;;5.97;2.38;;;;;;;;;;5080770;28;20037;-77
2022/03/22 12:12:48;;;;;;;8.35;3.30;;;;;;;;;;5078976;28;20514;-77
2022/03/22 12:15:16;;;;;;;3.58;2.50;;;;;;;;;;5072183;28;20064;-77
2022/03/22 12:17:46;;;;;;;8.13;3.22;;;;;;;;;;5076696;28;20564;-76
2022/03/22 12:20:13;;;;;;;6.32;3.38;;;;;;;;;;5071782;28;20040;-76
2022/03/22 12:22:41;;;;;;;8.40;3.35;;;;;;;;;;5078771;28;20525;-77
2022/03/22 12:25:08;;;;;;;8.18;3.63;;;;;;;;;;5095055;27;20131;-76
2022/03/22 12:27:35;;;;;;;5.00;2.92;;;;;;;;;;5074119;28;20040;-76
2022/03/22 12:30:01;;;;;;;5.00;3.25;;;;;;;;;;5078196;28;20067;-76
2022/03/22 12:32:27;;;;;;;4.90;2.53;;;;;;;;;;5096466;27;20597;-76
2022/03/22 12:34:54;;;;;;;5.88;2.58;;;;;;;;;;5074337;28;20515;-76
2022/03/22 12:37:20;;;;;;;4.82;2.92;;;;;;;;;;5077865;28;20040;-76
2022/03/22 12:39:47;;;;;;;6.35;3.20;;;;;;;;;;5073091;28;20048;-76
2022/03/22 12:42:14;;;;;;;6.80;3.55;;;;;;;;;;5076395;27;20043;-77
2022/03/22 12:44:41;;;;;;;6.25;2.95;;;;;;;;;;5082057;27;20098;-77
2022/03/22 12:47:07;;;;;;;5.65;2.90;;;;;;;;;;5072860;28;20043;-76
2022/03/22 12:49:34;;;;;;;4.68;3.20;;;;;;;;;;5075746;28;20584;-76
2022/03/22 12:52:01;;;;;;;8.48;2.95;;;;;;;;;;5076515;27;20040;-77
2022/03/22 12:54:45;;;;;;;6.00;3.35;;;;;;;;;;5077516;28;20130;-76
2022/03/22 12:57:13;;;;;;;6.43;3.90;;;;;;;;;;5069932;28;20095;-77
2022/03/22 12:59:40;;;;;;;6.72;3.40;;;;;;;;;;5072255;28;20055;-77
2022/03/22 13:02:06;;;;;;;5.32;3.55;;;;;;;;;;5091076;27;20518;-77
2022/03/22 13:04:35;;;;;;;5.90;3.67;;;;;;;;;;5079928;28;20048;-77
2022/03/22 13:07:05;;;;;;;4.43;3.00;;;;;;;;;;5096099;27;20047;-77
2022/03/22 13:12:17;;;;;;;3.85;2.97;;;;;;;;;;5092506;27;20044;-77
2022/03/22 13:15:01;;;;;;;4.75;2.85;;;;;;;;;;5090346;27;20503;-76
2022/03/22 13:17:28;;;;;;;4.72;2.80;;;;;;;;;;5071843;27;20032;-76
2022/03/22 13:19:55;;;;;;;4.53;3.20;;;;;;;;;;5093678;27;20056;-77
2022/03/22 13:22:25;;;;;;;5.90;3.17;;;;;;;;;;5080380;27;20108;-77
2022/03/22 13:25:01;;;;;;;5.97;3.40;;;;;;;;;;5092675;27;20040;-77
2022/03/22 13:27:27;;;;;;;5.07;3.05;;;;;;;;;;5092121;27;20057;-77
2022/03/22 13:29:53;;;;;;;9.80;3.55;;;;;;;;;;5096558;27;20044;-76
2022/03/22 13:32:27;;;;;;;8.13;3.72;;;;;;;;;;5078386;27;20501;-77
2022/03/22 13:34:59;;;;;;;5.03;3.15;;;;;;;;;;5072398;28;21036;-76
2022/03/22 13:37:25;;;;;;;;;;;;;;;;;;5078617;28;20050;-78
2022/03/22 13:39:52;;;;;;;4.78;3.10;;;;;;;;;;5097846;27;19947;-77
2022/03/22 13:42:22;;;;;;;5.53;3.13;;;;;;;;;;5081919;28;20545;-77
2022/03/22 13:44:50;;;;;;;4.82;3.22;;;;;;;;;;5092750;27;20044;-77
2022/03/22 13:47:30;;;;;;;4.40;3.28;;;;;;;;;;5077906;28;20044;-76
2022/03/22 13:50:00;;;;;;;6.47;3.63;;;;;;;;;;5076962;27;20052;-76
2022/03/22 13:52:28;;;;;;;4.60;3.05;;;;;;;;;;5077852;27;20051;-76
2022/03/22 13:54:57;;;;;;;7.68;3.45;;;;;;;;;;5075997;27;20611;-76
2022/03/22 13:57:28;;;;;;;4.97;3.08;;;;;;;;;;5101576;27;20125;-77
2022/03/22 14:00:00;;;;;;;7.57;3.00;;;;;;;;;;5081069;27;20537;-76
2022/03/22 14:02:27;;;;;;;7.68;3.35;;;;;;;;;;5069378;27;20045;-76
2022/03/22 14:04:55;;;;;;;4.82;2.75;;;;;;;;;;5074422;27;20040;-76
2022/03/22 14:07:21;;;;;;;4.03;2.50;;;;;;;;;;5079398;28;20127;-77
2022/03/22 14:09:47;;;;;;;5.60;3.50;;;;;;;;;;5078951;27;20036;-77
2022/03/22 14:12:13;;;;;;;4.65;2.38;;;;;;;;;;5092199;27;20040;-77
2022/03/22 14:14:40;;;;;;;5.25;3.17;;;;;;;;;;5072612;27;20040;-77
2022/03/22 14:17:06;;;;;;;5.43;2.95;;;;;;;;;;5076639;27;20564;-77
2022/03/22 14:19:32;;;;;;;5.55;3.03;;;;;;;;;;5077048;27;20048;-77
2022/03/22 14:21:58;;;;;;;5.53;3.20;;;;;;;;;;5079700;28;20056;-76
2022/03/22 14:24:26;;;;;;;5.07;3.20;;;;;;;;;;5070035;28;20040;-77
2022/03/22 14:26:53;;;;;;;4.80;3.08;;;;;;;;;;5094376;27;20514;-77
2022/03/22 14:29:19;;;;;;;6.10;2.85;;;;;;;;;;5071363;28;20486;-77
2022/03/22 14:31:45;;;;;;;4.65;2.97;;;;;;;;;;5075422;28;20102;-76
2022/03/22 14:35:46;;;;;;;6.35;3.17;;;;;;;;;;5094947;27;20039;-77
2022/03/22 14:36:57;;;;;;;7.18;3.60;;;;;;;;;;5092175;27;20040;-77
2022/03/22 14:39:23;;;;;;;5.40;3.33;;;;;;;;;;5078600;27;20049;-77
2022/03/22 14:41:49;;;;;;;4.22;2.90;;;;;;;;;;5075258;27;20043;-77
2022/03/22 14:44:16;;;;;;;5.97;3.03;;;;;;;;;;5074450;27;20076;-77
2022/03/22 14:46:43;;;;;;;4.72;3.13;;;;;;;;;;5076630;27;20264;-77
2022/03/22 14:49:10;;;;;;;4.10;3.30;;;;;;;;;;5077415;27;20079;-77
2022/03/22 14:54:22;;;;;;;5.15;3.30;;;;;;;;;;5050193;27;20048;-77
2022/03/22 14:59:33;;;;;;;5.28;3.22;;;;;;;;;;5088191;27;21169;-77
2022/03/22 15:01:59;;;;;;;5.35;2.40;;;;;;;;;;5097981;27;20040;-78
2022/03/22 15:04:25;;;;;;;4.03;2.70;;;;;;;;;;5081361;27;20059;-77
2022/03/22 15:06:53;;;;;;;4.95;3.13;;;;;;;;;;5078265;28;20123;-78
2022/03/22 15:09:19;;;;;;;4.20;2.83;;;;;;;;;;5079394;28;20044;-77
2022/03/22 15:11:46;;;;;;;3.30;2.50;;;;;;;;;;5079903;28;20039;-78
2022/03/22 15:14:15;;;;;;;5.55;2.83;;;;;;;;;;5076227;28;20067;-77
2022/03/22 15:16:41;;;;;;;4.30;2.83;;;;;;;;;;5075845;28;20339;-77
2022/03/22 15:19:07;;;;;;;6.82;3.17;;;;;;;;;;5095043;27;20044;-77